sensor_id;sensor_type;location;lat;lon;timestamp;P1;durP1;ratioP1;P2;durP2;ratioP2
3791;SDS011;1911;53.768;11.474;2023-05-10T00:00:32;4.83;;;3.20;;
3791;SDS011;1911;53.768;11.474;2023-05-10T00:02:58;5.77;;;3.23;;
3791;SDS011;1911;53.768;11.474;2023-05-10T00:05:23;3.67;;;3.23;;
3791;SDS011;1911;53.768;11.474;2023-05-10T00:07:49;3.57;;;3.27;;
3791;SDS011;1911;53.768;11.474;2023-05-10T00:10:14;6.00;;;3.73;;
3791;SDS011;1911;53.768;11.474;2023-05-10T00:12:40;6.43;;;3.90;;
3791;SDS011;1911;53.768;11.474;2023-05-10T00:15:06;7.13;;;3.67;;
3791;SDS011;1911;53.768;11.474;2023-05-10T00:17:33;4.10;;;3.43;;
3791;SDS011;1911;53.768;11.474;2023-05-10T00:19:58;5.50;;;3.47;;
3791;SDS011;1911;53.768;11.474;2023-05-10T00:22:24;6.80;;;3.63;;
3791;SDS011;1911;53.768;11.474;2023-05-10T00:24:50;4.90;;;3.20;;
3791;SDS011;1911;53.768;11.474;2023-05-10T00:27:15;5.50;;;3.77;;
3791;SDS011;1911;53.768;11.474;2023-05-10T00:29:41;6.20;;;4.00;;
3791;SDS011;1911;53.768;11.474;2023-05-10T00:32:06;5.03;;;4.00;;
3791;SDS011;1911;53.768;11.474;2023-05-10T00:34:32;5.47;;;3.43;;
3791;SDS011;1911;53.768;11.474;2023-05-10T00:36:58;8.20;;;3.93;;
3791;SDS011;1911;53.768;11.474;2023-05-10T00:39:24;5.97;;;3.30;;
3791;SDS011;1911;53.768;11.474;2023-05-10T00:41:51;5.07;;;3.97;;
3791;SDS011;1911;53.768;11.474;2023-05-10T00:44:17;6.90;;;3.80;;
3791;SDS011;1911;53.768;11.474;2023-05-10T00:46:43;7.40;;;3.87;;
3791;SDS011;1911;53.768;11.474;2023-05-10T00:49:10;5.50;;;3.13;;
3791;SDS011;1911;53.768;11.474;2023-05-10T00:51:36;5.10;;;3.83;;
3791;SDS011;1911;53.768;11.474;2023-05-10T00:54:02;4.90;;;3.70;;
3791;SDS011;1911;53.768;11.474;2023-05-10T00:56:28;6.57;;;5.73;;
3791;SDS011;1911;53.768;11.474;2023-05-10T00:59:00;5.30;;;3.67;;
3791;SDS011;1911;53.768;11.474;2023-05-10T01:01:26;5.70;;;4.20;;
3791;SDS011;1911;53.768;11.474;2023-05-10T01:03:52;4.77;;;3.40;;
3791;SDS011;1911;53.768;11.474;2023-05-10T01:06:19;4.30;;;3.57;;
3791;SDS011;1911;53.768;11.474;2023-05-10T01:08:44;5.13;;;4.10;;
3791;SDS011;1911;53.768;11.474;2023-05-10T01:11:11;5.63;;;4.33;;
3791;SDS011;1911;53.768;11.474;2023-05-10T01:13:37;7.27;;;4.70;;
3791;SDS011;1911;53.768;11.474;2023-05-10T01:16:04;7.57;;;4.07;;
3791;SDS011;1911;53.768;11.474;2023-05-10T01:18:33;7.63;;;4.03;;
3791;SDS011;1911;53.768;11.474;2023-05-10T01:35:03;10.07;;;4.70;;
3791;SDS011;1911;53.768;11.474;2023-05-10T01:37:43;6.20;;;4.33;;
3791;SDS011;1911;53.768;11.474;2023-05-10T01:43:01;4.80;;;3.30;;
3791;SDS011;1911;53.768;11.474;2023-05-10T01:45:31;8.20;;;4.30;;
3791;SDS011;1911;53.768;11.474;2023-05-10T01:48:05;5.80;;;4.20;;
3791;SDS011;1911;53.768;11.474;2023-05-10T01:50:34;4.73;;;4.17;;
3791;SDS011;1911;53.768;11.474;2023-05-10T01:53:02;6.37;;;5.07;;
3791;SDS011;1911;53.768;11.474;2023-05-10T01:55:32;5.53;;;4.00;;
3791;SDS011;1911;53.768;11.474;2023-05-10T01:58:07;5.90;;;4.30;;
3791;SDS011;1911;53.768;11.474;2023-05-10T02:00:35;4.60;;;3.80;;
3791;SDS011;1911;53.768;11.474;2023-05-10T02:03:05;5.33;;;4.53;;
3791;SDS011;1911;53.768;11.474;2023-05-10T02:05:33;5.20;;;4.33;;
3791;SDS011;1911;53.768;11.474;2023-05-10T02:07:59;6.20;;;4.47;;
3791;SDS011;1911;53.768;11.474;2023-05-10T02:10:28;7.07;;;3.60;;
3791;SDS011;1911;53.768;11.474;2023-05-10T02:12:55;4.90;;;4.30;;
3791;SDS011;1911;53.768;11.474;2023-05-10T02:15:24;5.70;;;3.87;;
3791;SDS011;1911;53.768;11.474;2023-05-10T02:17:51;6.07;;;4.30;;
3791;SDS011;1911;53.768;11.474;2023-05-10T02:20:19;5.60;;;4.50;;
3791;SDS011;1911;53.768;11.474;2023-05-10T02:22:46;7.03;;;4.43;;
3791;SDS011;1911;53.768;11.474;2023-05-10T02:25:14;6.13;;;5.13;;
3791;SDS011;1911;53.768;11.474;2023-05-10T02:27:41;7.60;;;4.40;;
3791;SDS011;1911;53.768;11.474;2023-05-10T02:30:09;6.63;;;4.90;;
3791;SDS011;1911;53.768;11.474;2023-05-10T02:32:36;4.97;;;4.00;;
3791;SDS011;1911;53.768;11.474;2023-05-10T02:35:02;9.10;;;5.20;;
3791;SDS011;1911;53.768;11.474;2023-05-10T02:37:29;5.60;;;4.30;;
3791;SDS011;1911;53.768;11.474;2023-05-10T02:39:56;6.73;;;5.13;;
3791;SDS011;1911;53.768;11.474;2023-05-10T02:42:25;6.17;;;5.10;;
3791;SDS011;1911;53.768;11.474;2023-05-10T02:44:53;4.47;;;3.83;;
3791;SDS011;1911;53.768;11.474;2023-05-10T02:47:24;8.90;;;4.90;;
3791;SDS011;1911;53.768;11.474;2023-05-10T02:49:50;8.33;;;4.60;;
3791;SDS011;1911;53.768;11.474;2023-05-10T02:52:16;8.00;;;4.70;;
3791;SDS011;1911;53.768;11.474;2023-05-10T02:54:48;6.40;;;4.83;;
3791;SDS011;1911;53.768;11.474;2023-05-10T02:57:17;6.83;;;4.97;;
3791;SDS011;1911;53.768;11.474;2023-05-10T02:59:47;5.83;;;5.17;;
3791;SDS011;1911;53.768;11.474;2023-05-10T03:02:12;8.83;;;4.40;;
3791;SDS011;1911;53.768;11.474;2023-05-10T03:04:38;6.57;;;4.70;;
3791;SDS011;1911;53.768;11.474;2023-05-10T03:07:04;7.63;;;5.27;;
3791;SDS011;1911;53.768;11.474;2023-05-10T03:09:30;7.70;;;4.93;;
3791;SDS011;1911;53.768;11.474;2023-05-10T03:20:38;6.07;;;4.33;;
3791;SDS011;1911;53.768;11.474;2023-05-10T03:23:11;6.90;;;4.97;;
3791;SDS011;1911;53.768;11.474;2023-05-10T03:25:43;6.80;;;5.23;;
3791;SDS011;1911;53.768;11.474;2023-05-10T03:28:10;6.37;;;5.00;;
3791;SDS011;1911;53.768;11.474;2023-05-10T03:30:37;6.63;;;5.30;;
3791;SDS011;1911;53.768;11.474;2023-05-10T03:33:07;8.10;;;5.17;;
3791;SDS011;1911;53.768;11.474;2023-05-10T03:35:33;6.33;;;5.07;;
3791;SDS011;1911;53.768;11.474;2023-05-10T03:37:59;6.70;;;5.00;;
3791;SDS011;1911;53.768;11.474;2023-05-10T03:40:25;5.97;;;4.83;;
3791;SDS011;1911;53.768;11.474;2023-05-10T03:42:53;10.83;;;5.43;;
3791;SDS011;1911;53.768;11.474;2023-05-10T03:45:19;8.13;;;5.50;;
3791;SDS011;1911;53.768;11.474;2023-05-10T03:47:45;6.30;;;5.37;;
3791;SDS011;1911;53.768;11.474;2023-05-10T03:50:11;9.80;;;5.30;;
3791;SDS011;1911;53.768;11.474;2023-05-10T03:52:36;9.53;;;5.47;;
3791;SDS011;1911;53.768;11.474;2023-05-10T03:55:04;5.43;;;4.20;;
3791;SDS011;1911;53.768;11.474;2023-05-10T03:57:30;6.10;;;4.80;;
3791;SDS011;1911;53.768;11.474;2023-05-10T03:59:56;5.47;;;4.30;;
3791;SDS011;1911;53.768;11.474;2023-05-10T04:02:21;7.20;;;4.33;;
3791;SDS011;1911;53.768;11.474;2023-05-10T04:04:47;6.10;;;4.47;;
3791;SDS011;1911;53.768;11.474;2023-05-10T04:07:13;6.23;;;4.17;;
3791;SDS011;1911;53.768;11.474;2023-05-10T04:09:39;8.87;;;4.97;;
3791;SDS011;1911;53.768;11.474;2023-05-10T04:12:05;5.60;;;4.33;;
3791;SDS011;1911;53.768;11.474;2023-05-10T04:14:31;7.20;;;4.50;;
3791;SDS011;1911;53.768;11.474;2023-05-10T04:16:57;10.73;;;4.93;;
3791;SDS011;1911;53.768;11.474;2023-05-10T04:19:22;8.93;;;4.80;;
3791;SDS011;1911;53.768;11.474;2023-05-10T04:21:48;7.20;;;5.00;;
3791;SDS011;1911;53.768;11.474;2023-05-10T04:24:14;7.90;;;4.80;;
3791;SDS011;1911;53.768;11.474;2023-05-10T04:26:39;6.20;;;5.20;;
3791;SDS011;1911;53.768;11.474;2023-05-10T04:29:05;6.80;;;4.30;;
3791;SDS011;1911;53.768;11.474;2023-05-10T04:31:31;5.20;;;4.10;;
3791;SDS011;1911;53.768;11.474;2023-05-10T04:33:57;6.70;;;4.33;;
3791;SDS011;1911;53.768;11.474;2023-05-10T04:36:22;7.97;;;4.97;;
3791;SDS011;1911;53.768;11.474;2023-05-10T04:38:48;6.87;;;4.70;;
3791;SDS011;1911;53.768;11.474;2023-05-10T04:41:13;6.20;;;5.20;;
3791;SDS011;1911;53.768;11.474;2023-05-10T04:43:39;6.53;;;5.17;;
3791;SDS011;1911;53.768;11.474;2023-05-10T04:46:05;5.60;;;4.67;;
3791;SDS011;1911;53.768;11.474;2023-05-10T04:48:32;5.57;;;4.10;;
3791;SDS011;1911;53.768;11.474;2023-05-10T04:50:57;7.00;;;4.37;;
3791;SDS011;1911;53.768;11.474;2023-05-10T04:53:23;6.17;;;4.67;;
3791;SDS011;1911;53.768;11.474;2023-05-10T04:55:49;5.77;;;4.90;;
3791;SDS011;1911;53.768;11.474;2023-05-10T04:58:14;7.43;;;4.83;;
3791;SDS011;1911;53.768;11.474;2023-05-10T05:00:40;13.27;;;4.80;;
3791;SDS011;1911;53.768;11.474;2023-05-10T05:03:06;8.50;;;4.47;;
3791;SDS011;1911;53.768;11.474;2023-05-10T05:05:32;6.37;;;4.87;;
3791;SDS011;1911;53.768;11.474;2023-05-10T05:07:57;6.10;;;4.83;;
3791;SDS011;1911;53.768;11.474;2023-05-10T05:10:23;5.63;;;4.30;;
3791;SDS011;1911;53.768;11.474;2023-05-10T05:12:48;4.47;;;3.90;;
3791;SDS011;1911;53.768;11.474;2023-05-10T05:15:14;5.33;;;3.80;;
3791;SDS011;1911;53.768;11.474;2023-05-10T05:17:41;6.70;;;4.77;;
3791;SDS011;1911;53.768;11.474;2023-05-10T05:20:07;6.00;;;4.10;;
3791;SDS011;1911;53.768;11.474;2023-05-10T05:22:33;8.13;;;3.97;;
3791;SDS011;1911;53.768;11.474;2023-05-10T05:25:00;5.00;;;3.77;;
3791;SDS011;1911;53.768;11.474;2023-05-10T05:27:27;5.57;;;4.30;;
3791;SDS011;1911;53.768;11.474;2023-05-10T05:29:53;4.50;;;3.90;;
3791;SDS011;1911;53.768;11.474;2023-05-10T05:32:19;5.00;;;4.17;;
3791;SDS011;1911;53.768;11.474;2023-05-10T05:34:45;8.37;;;4.50;;
3791;SDS011;1911;53.768;11.474;2023-05-10T05:37:18;5.93;;;4.10;;
3791;SDS011;1911;53.768;11.474;2023-05-10T05:39:46;3.60;;;3.27;;
3791;SDS011;1911;53.768;11.474;2023-05-10T05:42:12;5.03;;;3.70;;
3791;SDS011;1911;53.768;11.474;2023-05-10T05:44:39;4.13;;;3.50;;
3791;SDS011;1911;53.768;11.474;2023-05-10T05:47:05;4.67;;;3.43;;
3791;SDS011;1911;53.768;11.474;2023-05-10T05:49:31;7.40;;;4.00;;
3791;SDS011;1911;53.768;11.474;2023-05-10T05:52:00;6.03;;;4.00;;
3791;SDS011;1911;53.768;11.474;2023-05-10T05:54:27;5.07;;;4.00;;
3791;SDS011;1911;53.768;11.474;2023-05-10T05:56:53;6.40;;;3.70;;
3791;SDS011;1911;53.768;11.474;2023-05-10T05:59:20;8.23;;;3.83;;
3791;SDS011;1911;53.768;11.474;2023-05-10T06:01:46;5.93;;;4.37;;
3791;SDS011;1911;53.768;11.474;2023-05-10T06:04:11;3.73;;;3.03;;
3791;SDS011;1911;53.768;11.474;2023-05-10T06:06:37;6.63;;;3.60;;
3791;SDS011;1911;53.768;11.474;2023-05-10T06:09:03;6.93;;;3.63;;
3791;SDS011;1911;53.768;11.474;2023-05-10T06:11:29;5.67;;;4.40;;
3791;SDS011;1911;53.768;11.474;2023-05-10T06:13:57;4.17;;;3.63;;
3791;SDS011;1911;53.768;11.474;2023-05-10T06:16:23;5.30;;;3.63;;
3791;SDS011;1911;53.768;11.474;2023-05-10T06:18:48;5.70;;;3.93;;
3791;SDS011;1911;53.768;11.474;2023-05-10T06:21:14;4.03;;;3.23;;
3791;SDS011;1911;53.768;11.474;2023-05-10T06:23:41;4.50;;;3.60;;
3791;SDS011;1911;53.768;11.474;2023-05-10T06:26:06;6.60;;;4.40;;
3791;SDS011;1911;53.768;11.474;2023-05-10T06:28:32;4.93;;;3.60;;
3791;SDS011;1911;53.768;11.474;2023-05-10T06:30:58;5.50;;;4.00;;
3791;SDS011;1911;53.768;11.474;2023-05-10T06:33:24;4.20;;;3.50;;
3791;SDS011;1911;53.768;11.474;2023-05-10T06:35:50;5.60;;;4.33;;
3791;SDS011;1911;53.768;11.474;2023-05-10T06:38:15;7.17;;;4.00;;
3791;SDS011;1911;53.768;11.474;2023-05-10T06:40:41;6.17;;;4.60;;
3791;SDS011;1911;53.768;11.474;2023-05-10T06:43:07;7.77;;;3.43;;
3791;SDS011;1911;53.768;11.474;2023-05-10T06:45:33;4.17;;;3.40;;
3791;SDS011;1911;53.768;11.474;2023-05-10T06:47:58;4.50;;;3.63;;
3791;SDS011;1911;53.768;11.474;2023-05-10T06:50:24;5.50;;;4.13;;
3791;SDS011;1911;53.768;11.474;2023-05-10T06:52:50;4.50;;;4.10;;
3791;SDS011;1911;53.768;11.474;2023-05-10T06:55:15;5.97;;;4.30;;
3791;SDS011;1911;53.768;11.474;2023-05-10T06:57:41;5.20;;;3.43;;
3791;SDS011;1911;53.768;11.474;2023-05-10T07:00:07;5.73;;;3.70;;
3791;SDS011;1911;53.768;11.474;2023-05-10T07:02:34;5.30;;;4.00;;
3791;SDS011;1911;53.768;11.474;2023-05-10T07:05:00;5.20;;;3.10;;
3791;SDS011;1911;53.768;11.474;2023-05-10T07:07:27;6.00;;;3.97;;
3791;SDS011;1911;53.768;11.474;2023-05-10T07:09:52;5.43;;;3.80;;
3791;SDS011;1911;53.768;11.474;2023-05-10T07:12:19;4.90;;;4.17;;
3791;SDS011;1911;53.768;11.474;2023-05-10T07:14:45;4.90;;;3.70;;
3791;SDS011;1911;53.768;11.474;2023-05-10T07:17:11;5.60;;;4.20;;
3791;SDS011;1911;53.768;11.474;2023-05-10T07:19:37;6.17;;;3.13;;
3791;SDS011;1911;53.768;11.474;2023-05-10T07:22:02;7.47;;;4.00;;
3791;SDS011;1911;53.768;11.474;2023-05-10T07:24:28;6.17;;;3.60;;
3791;SDS011;1911;53.768;11.474;2023-05-10T07:26:53;6.07;;;3.70;;
3791;SDS011;1911;53.768;11.474;2023-05-10T07:29:19;5.33;;;3.60;;
3791;SDS011;1911;53.768;11.474;2023-05-10T07:31:45;4.27;;;3.70;;
3791;SDS011;1911;53.768;11.474;2023-05-10T07:34:10;6.30;;;4.40;;
3791;SDS011;1911;53.768;11.474;2023-05-10T07:36:36;7.50;;;3.40;;
3791;SDS011;1911;53.768;11.474;2023-05-10T07:39:01;6.30;;;4.73;;
3791;SDS011;1911;53.768;11.474;2023-05-10T07:41:28;5.73;;;3.97;;
3791;SDS011;1911;53.768;11.474;2023-05-10T07:43:53;4.10;;;3.10;;
3791;SDS011;1911;53.768;11.474;2023-05-10T07:46:19;5.00;;;3.63;;
3791;SDS011;1911;53.768;11.474;2023-05-10T07:48:45;4.57;;;3.63;;
3791;SDS011;1911;53.768;11.474;2023-05-10T07:51:11;5.73;;;3.70;;
3791;SDS011;1911;53.768;11.474;2023-05-10T07:53:37;4.43;;;3.37;;
3791;SDS011;1911;53.768;11.474;2023-05-10T07:56:24;5.70;;;3.83;;
3791;SDS011;1911;53.768;11.474;2023-05-10T07:58:57;5.10;;;3.63;;
3791;SDS011;1911;53.768;11.474;2023-05-10T08:01:24;3.90;;;3.40;;
3791;SDS011;1911;53.768;11.474;2023-05-10T08:03:50;3.33;;;3.00;;
3791;SDS011;1911;53.768;11.474;2023-05-10T08:06:16;7.17;;;3.43;;
3791;SDS011;1911;53.768;11.474;2023-05-10T08:08:43;4.80;;;3.23;;
3791;SDS011;1911;53.768;11.474;2023-05-10T08:13:45;6.10;;;3.70;;
3791;SDS011;1911;53.768;11.474;2023-05-10T08:16:10;4.80;;;2.97;;
3791;SDS011;1911;53.768;11.474;2023-05-10T08:18:36;5.87;;;3.80;;
3791;SDS011;1911;53.768;11.474;2023-05-10T08:21:04;4.07;;;3.10;;
3791;SDS011;1911;53.768;11.474;2023-05-10T08:23:30;4.67;;;3.30;;
3791;SDS011;1911;53.768;11.474;2023-05-10T08:25:55;4.10;;;3.20;;
3791;SDS011;1911;53.768;11.474;2023-05-10T08:28:21;7.47;;;4.43;;
3791;SDS011;1911;53.768;11.474;2023-05-10T08:30:47;4.50;;;3.53;;
3791;SDS011;1911;53.768;11.474;2023-05-10T08:33:13;4.50;;;3.57;;
3791;SDS011;1911;53.768;11.474;2023-05-10T08:35:38;6.23;;;3.90;;
3791;SDS011;1911;53.768;11.474;2023-05-10T08:38:04;3.93;;;3.10;;
3791;SDS011;1911;53.768;11.474;2023-05-10T08:40:29;4.33;;;3.40;;
3791;SDS011;1911;53.768;11.474;2023-05-10T08:42:57;3.77;;;3.40;;
3791;SDS011;1911;53.768;11.474;2023-05-10T08:45:28;6.33;;;3.60;;
3791;SDS011;1911;53.768;11.474;2023-05-10T08:47:58;4.83;;;2.60;;
3791;SDS011;1911;53.768;11.474;2023-05-10T08:50:26;4.90;;;3.90;;
3791;SDS011;1911;53.768;11.474;2023-05-10T08:52:52;8.30;;;3.47;;
3791;SDS011;1911;53.768;11.474;2023-05-10T08:55:22;5.37;;;3.70;;
3791;SDS011;1911;53.768;11.474;2023-05-10T08:57:49;5.37;;;3.43;;
3791;SDS011;1911;53.768;11.474;2023-05-10T09:00:15;6.57;;;4.20;;
3791;SDS011;1911;53.768;11.474;2023-05-10T09:02:41;8.03;;;3.27;;
3791;SDS011;1911;53.768;11.474;2023-05-10T09:05:08;5.00;;;4.07;;
3791;SDS011;1911;53.768;11.474;2023-05-10T09:07:35;4.70;;;3.17;;
3791;SDS011;1911;53.768;11.474;2023-05-10T09:10:01;6.70;;;4.60;;
3791;SDS011;1911;53.768;11.474;2023-05-10T09:12:28;4.83;;;3.73;;
3791;SDS011;1911;53.768;11.474;2023-05-10T09:14:53;6.97;;;3.93;;
3791;SDS011;1911;53.768;11.474;2023-05-10T09:17:21;4.47;;;4.03;;
3791;SDS011;1911;53.768;11.474;2023-05-10T09:19:56;6.17;;;3.80;;
3791;SDS011;1911;53.768;11.474;2023-05-10T09:22:24;5.10;;;3.50;;
3791;SDS011;1911;53.768;11.474;2023-05-10T09:27:36;4.90;;;3.70;;
3791;SDS011;1911;53.768;11.474;2023-05-10T09:30:03;11.23;;;3.60;;
3791;SDS011;1911;53.768;11.474;2023-05-10T09:35:12;6.13;;;4.30;;
3791;SDS011;1911;53.768;11.474;2023-05-10T09:37:40;6.00;;;3.87;;
3791;SDS011;1911;53.768;11.474;2023-05-10T09:40:28;5.03;;;3.50;;
3791;SDS011;1911;53.768;11.474;2023-05-10T09:43:04;8.30;;;4.43;;
3791;SDS011;1911;53.768;11.474;2023-05-10T09:45:33;5.60;;;4.47;;
3791;SDS011;1911;53.768;11.474;2023-05-10T09:48:01;3.90;;;3.50;;
3791;SDS011;1911;53.768;11.474;2023-05-10T09:50:28;5.10;;;3.90;;
3791;SDS011;1911;53.768;11.474;2023-05-10T09:52:57;7.77;;;4.50;;
3791;SDS011;1911;53.768;11.474;2023-05-10T09:55:45;4.47;;;3.73;;
3791;SDS011;1911;53.768;11.474;2023-05-10T09:58:11;6.00;;;3.53;;
3791;SDS011;1911;53.768;11.474;2023-05-10T10:00:38;4.30;;;3.90;;
3791;SDS011;1911;53.768;11.474;2023-05-10T10:03:05;4.50;;;3.63;;
3791;SDS011;1911;53.768;11.474;2023-05-10T10:05:36;6.30;;;3.97;;
3791;SDS011;1911;53.768;11.474;2023-05-10T10:08:05;7.13;;;4.77;;
3791;SDS011;1911;53.768;11.474;2023-05-10T10:10:31;4.00;;;3.53;;
3791;SDS011;1911;53.768;11.474;2023-05-10T10:12:58;5.67;;;3.83;;
3791;SDS011;1911;53.768;11.474;2023-05-10T10:15:24;6.40;;;4.00;;
3791;SDS011;1911;53.768;11.474;2023-05-10T10:17:50;6.70;;;3.93;;
3791;SDS011;1911;53.768;11.474;2023-05-10T10:20:17;4.40;;;3.67;;
3791;SDS011;1911;53.768;11.474;2023-05-10T10:22:44;13.47;;;3.67;;
3791;SDS011;1911;53.768;11.474;2023-05-10T10:25:11;4.53;;;3.40;;
3791;SDS011;1911;53.768;11.474;2023-05-10T10:35:57;4.87;;;3.70;;
3791;SDS011;1911;53.768;11.474;2023-05-10T10:38:25;7.67;;;4.20;;
3791;SDS011;1911;53.768;11.474;2023-05-10T10:41:06;4.90;;;4.03;;
3791;SDS011;1911;53.768;11.474;2023-05-10T10:44:22;8.87;;;3.60;;
3791;SDS011;1911;53.768;11.474;2023-05-10T10:54:51;5.77;;;3.90;;
3791;SDS011;1911;53.768;11.474;2023-05-10T11:05:24;5.70;;;3.50;;
3791;SDS011;1911;53.768;11.474;2023-05-10T11:07:54;4.90;;;4.00;;
3791;SDS011;1911;53.768;11.474;2023-05-10T11:10:24;5.00;;;4.50;;
3791;SDS011;1911;53.768;11.474;2023-05-10T11:15:30;3.80;;;3.37;;
3791;SDS011;1911;53.768;11.474;2023-05-10T11:20:58;5.37;;;4.47;;
3791;SDS011;1911;53.768;11.474;2023-05-10T11:26:08;7.10;;;4.80;;
3791;SDS011;1911;53.768;11.474;2023-05-10T11:28:40;5.83;;;4.30;;
3791;SDS011;1911;53.768;11.474;2023-05-10T11:31:10;4.90;;;3.73;;
3791;SDS011;1911;53.768;11.474;2023-05-10T11:33:47;5.40;;;4.33;;
3791;SDS011;1911;53.768;11.474;2023-05-10T11:36:19;10.77;;;5.03;;
3791;SDS011;1911;53.768;11.474;2023-05-10T11:38:50;4.87;;;4.40;;
3791;SDS011;1911;53.768;11.474;2023-05-10T11:41:16;6.10;;;4.10;;
3791;SDS011;1911;53.768;11.474;2023-05-10T11:43:46;9.10;;;4.70;;
3791;SDS011;1911;53.768;11.474;2023-05-10T11:46:14;5.53;;;4.50;;
3791;SDS011;1911;53.768;11.474;2023-05-10T11:48:41;9.03;;;4.87;;
3791;SDS011;1911;53.768;11.474;2023-05-10T11:51:07;6.57;;;5.17;;
3791;SDS011;1911;53.768;11.474;2023-05-10T11:53:33;5.57;;;3.73;;
3791;SDS011;1911;53.768;11.474;2023-05-10T11:56:03;6.57;;;4.30;;
3791;SDS011;1911;53.768;11.474;2023-05-10T11:58:30;6.40;;;4.00;;
3791;SDS011;1911;53.768;11.474;2023-05-10T12:00:57;9.37;;;4.70;;
3791;SDS011;1911;53.768;11.474;2023-05-10T12:03:27;5.90;;;4.13;;
3791;SDS011;1911;53.768;11.474;2023-05-10T12:05:53;5.90;;;4.43;;
3791;SDS011;1911;53.768;11.474;2023-05-10T12:08:21;5.70;;;4.40;;
3791;SDS011;1911;53.768;11.474;2023-05-10T12:10:48;4.80;;;3.80;;
3791;SDS011;1911;53.768;11.474;2023-05-10T12:13:14;5.70;;;5.10;;
3791;SDS011;1911;53.768;11.474;2023-05-10T12:15:40;6.30;;;4.53;;
3791;SDS011;1911;53.768;11.474;2023-05-10T12:18:13;6.13;;;4.40;;
3791;SDS011;1911;53.768;11.474;2023-05-10T12:20:39;5.90;;;4.30;;
3791;SDS011;1911;53.768;11.474;2023-05-10T12:23:05;5.63;;;5.03;;
3791;SDS011;1911;53.768;11.474;2023-05-10T12:25:34;7.33;;;4.40;;
3791;SDS011;1911;53.768;11.474;2023-05-10T12:28:03;4.83;;;3.73;;
3791;SDS011;1911;53.768;11.474;2023-05-10T12:30:32;5.70;;;4.60;;
3791;SDS011;1911;53.768;11.474;2023-05-10T12:33:02;6.07;;;4.50;;
3791;SDS011;1911;53.768;11.474;2023-05-10T12:35:32;9.20;;;4.90;;
3791;SDS011;1911;53.768;11.474;2023-05-10T12:37:58;5.23;;;4.73;;
3791;SDS011;1911;53.768;11.474;2023-05-10T12:40:24;5.20;;;4.70;;
3791;SDS011;1911;53.768;11.474;2023-05-10T12:42:50;4.90;;;3.90;;
3791;SDS011;1911;53.768;11.474;2023-05-10T12:45:17;9.20;;;4.53;;
3791;SDS011;1911;53.768;11.474;2023-05-10T12:47:43;5.47;;;4.70;;
3791;SDS011;1911;53.768;11.474;2023-05-10T12:50:09;5.10;;;4.60;;
3791;SDS011;1911;53.768;11.474;2023-05-10T12:52:35;8.23;;;4.47;;
3791;SDS011;1911;53.768;11.474;2023-05-10T12:55:01;5.47;;;4.43;;
3791;SDS011;1911;53.768;11.474;2023-05-10T12:57:27;5.80;;;4.47;;
3791;SDS011;1911;53.768;11.474;2023-05-10T12:59:53;10.83;;;4.60;;
3791;SDS011;1911;53.768;11.474;2023-05-10T13:02:20;7.00;;;4.03;;
3791;SDS011;1911;53.768;11.474;2023-05-10T13:04:46;5.37;;;4.87;;
3791;SDS011;1911;53.768;11.474;2023-05-10T13:07:12;5.30;;;4.80;;
3791;SDS011;1911;53.768;11.474;2023-05-10T13:09:38;5.13;;;4.30;;
3791;SDS011;1911;53.768;11.474;2023-05-10T13:12:04;4.77;;;3.70;;
3791;SDS011;1911;53.768;11.474;2023-05-10T13:14:30;5.77;;;4.43;;
3791;SDS011;1911;53.768;11.474;2023-05-10T13:16:56;6.00;;;4.40;;
3791;SDS011;1911;53.768;11.474;2023-05-10T13:19:22;4.63;;;4.00;;
3791;SDS011;1911;53.768;11.474;2023-05-10T13:21:47;5.27;;;4.00;;
3791;SDS011;1911;53.768;11.474;2023-05-10T13:24:13;10.10;;;4.27;;
3791;SDS011;1911;53.768;11.474;2023-05-10T13:26:42;4.80;;;3.80;;
3791;SDS011;1911;53.768;11.474;2023-05-10T13:29:07;6.37;;;4.07;;
3791;SDS011;1911;53.768;11.474;2023-05-10T13:31:33;5.80;;;4.07;;
3791;SDS011;1911;53.768;11.474;2023-05-10T13:37:25;5.47;;;4.30;;
3791;SDS011;1911;53.768;11.474;2023-05-10T13:43:42;7.77;;;4.20;;
3791;SDS011;1911;53.768;11.474;2023-05-10T13:46:08;7.17;;;4.60;;
3791;SDS011;1911;53.768;11.474;2023-05-10T13:48:33;5.63;;;4.53;;
3791;SDS011;1911;53.768;11.474;2023-05-10T13:50:59;6.70;;;4.40;;
3791;SDS011;1911;53.768;11.474;2023-05-10T13:53:24;4.73;;;4.10;;
3791;SDS011;1911;53.768;11.474;2023-05-10T13:55:50;6.80;;;4.70;;
3791;SDS011;1911;53.768;11.474;2023-05-10T13:58:15;7.73;;;4.33;;
3791;SDS011;1911;53.768;11.474;2023-05-10T14:00:41;4.67;;;4.27;;
3791;SDS011;1911;53.768;11.474;2023-05-10T14:03:07;5.73;;;4.53;;
3791;SDS011;1911;53.768;11.474;2023-05-10T14:05:35;7.60;;;4.40;;
3791;SDS011;1911;53.768;11.474;2023-05-10T14:08:01;8.63;;;4.70;;
3791;SDS011;1911;53.768;11.474;2023-05-10T14:10:26;5.80;;;4.20;;
3791;SDS011;1911;53.768;11.474;2023-05-10T14:12:52;6.20;;;4.93;;
3791;SDS011;1911;53.768;11.474;2023-05-10T14:15:58;7.80;;;3.90;;
3791;SDS011;1911;53.768;11.474;2023-05-10T14:19:06;6.00;;;4.47;;
3791;SDS011;1911;53.768;11.474;2023-05-10T14:21:54;6.03;;;4.03;;
3791;SDS011;1911;53.768;11.474;2023-05-10T14:24:33;7.83;;;4.60;;
3791;SDS011;1911;53.768;11.474;2023-05-10T14:30:12;4.70;;;3.97;;
3791;SDS011;1911;53.768;11.474;2023-05-10T14:32:38;5.63;;;4.93;;
3791;SDS011;1911;53.768;11.474;2023-05-10T14:35:06;7.20;;;4.00;;
3791;SDS011;1911;53.768;11.474;2023-05-10T14:37:32;5.20;;;4.40;;
3791;SDS011;1911;53.768;11.474;2023-05-10T14:39:58;6.93;;;4.33;;
3791;SDS011;1911;53.768;11.474;2023-05-10T14:42:23;5.20;;;3.93;;
3791;SDS011;1911;53.768;11.474;2023-05-10T14:44:49;4.97;;;4.40;;
3791;SDS011;1911;53.768;11.474;2023-05-10T14:47:14;5.67;;;4.67;;
3791;SDS011;1911;53.768;11.474;2023-05-10T14:49:40;10.73;;;4.50;;
3791;SDS011;1911;53.768;11.474;2023-05-10T14:52:06;7.27;;;4.33;;
3791;SDS011;1911;53.768;11.474;2023-05-10T14:54:31;6.50;;;5.10;;
3791;SDS011;1911;53.768;11.474;2023-05-10T14:56:58;5.27;;;4.77;;
3791;SDS011;1911;53.768;11.474;2023-05-10T14:59:25;6.50;;;5.27;;
3791;SDS011;1911;53.768;11.474;2023-05-10T15:01:50;7.50;;;4.77;;
3791;SDS011;1911;53.768;11.474;2023-05-10T15:04:16;8.53;;;4.60;;
3791;SDS011;1911;53.768;11.474;2023-05-10T15:06:41;10.33;;;6.60;;
3791;SDS011;1911;53.768;11.474;2023-05-10T15:09:07;8.60;;;6.70;;
3791;SDS011;1911;53.768;11.474;2023-05-10T15:11:33;9.93;;;7.40;;
3791;SDS011;1911;53.768;11.474;2023-05-10T15:14:04;11.60;;;6.10;;
3791;SDS011;1911;53.768;11.474;2023-05-10T15:16:29;9.43;;;6.57;;
3791;SDS011;1911;53.768;11.474;2023-05-10T15:18:55;11.13;;;6.37;;
3791;SDS011;1911;53.768;11.474;2023-05-10T15:21:20;7.60;;;6.53;;
3791;SDS011;1911;53.768;11.474;2023-05-10T15:23:46;9.13;;;7.63;;
3791;SDS011;1911;53.768;11.474;2023-05-10T15:26:12;10.73;;;6.93;;
3791;SDS011;1911;53.768;11.474;2023-05-10T15:28:37;12.30;;;7.13;;
3791;SDS011;1911;53.768;11.474;2023-05-10T15:31:03;11.10;;;7.53;;
3791;SDS011;1911;53.768;11.474;2023-05-10T15:33:28;10.43;;;6.50;;
3791;SDS011;1911;53.768;11.474;2023-05-10T15:35:54;9.20;;;7.17;;
3791;SDS011;1911;53.768;11.474;2023-05-10T15:38:19;9.37;;;7.10;;
3791;SDS011;1911;53.768;11.474;2023-05-10T15:40:45;11.57;;;6.63;;
3791;SDS011;1911;53.768;11.474;2023-05-10T15:43:10;8.80;;;6.63;;
3791;SDS011;1911;53.768;11.474;2023-05-10T15:45:36;11.43;;;6.60;;
3791;SDS011;1911;53.768;11.474;2023-05-10T15:48:02;8.97;;;7.60;;
3791;SDS011;1911;53.768;11.474;2023-05-10T15:50:27;9.17;;;7.00;;
3791;SDS011;1911;53.768;11.474;2023-05-10T15:52:53;10.47;;;7.30;;
3791;SDS011;1911;53.768;11.474;2023-05-10T15:55:18;10.30;;;7.63;;
3791;SDS011;1911;53.768;11.474;2023-05-10T15:57:44;7.30;;;6.47;;
3791;SDS011;1911;53.768;11.474;2023-05-10T16:00:10;6.77;;;6.00;;
3791;SDS011;1911;53.768;11.474;2023-05-10T16:02:39;9.57;;;6.50;;
3791;SDS011;1911;53.768;11.474;2023-05-10T16:05:07;9.53;;;6.70;;
3791;SDS011;1911;53.768;11.474;2023-05-10T16:07:33;9.70;;;6.23;;
3791;SDS011;1911;53.768;11.474;2023-05-10T16:09:59;13.10;;;7.33;;
3791;SDS011;1911;53.768;11.474;2023-05-10T16:12:28;8.63;;;6.80;;
3791;SDS011;1911;53.768;11.474;2023-05-10T16:14:54;8.87;;;7.23;;
3791;SDS011;1911;53.768;11.474;2023-05-10T16:17:20;10.27;;;7.07;;